Time;durP1;ratioP1;P1;durP2;ratioP2;P2;SDS_P1;SDS_P2;PMS_P1;PMS_P2;Temp;Humidity;BMP_temperature;BMP_pressure;BME280_temperature;BME280_humidity;BME280_pressure;Samples;Min_cycle;Max_cycle;Signal;HPM_P1;HPM_P2
2022/06/14 00:01:35;;;;;;;8.18;1.80;;;14.40;99.90;;;;;;5094955;28;20440;-68
2022/06/14 00:04:01;;;;;;;10.05;2.22;;;14.40;99.90;;;;;;5086563;28;20024;-65
2022/06/14 00:06:29;;;;;;;5.90;1.70;;;14.40;99.90;;;;;;5094659;28;20175;-69
2022/06/14 00:08:55;;;;;;;5.68;2.00;;;13.90;99.90;;;;;;5095120;28;20498;-65
2022/06/14 00:11:26;;;;;;;4.53;1.55;;;13.70;99.90;;;;;;5094618;28;20038;-66
2022/06/14 00:13:53;;;;;;;4.55;2.00;;;14.00;99.90;;;;;;5094386;28;20040;-65
2022/06/14 00:16:21;;;;;;;4.63;1.92;;;14.40;99.90;;;;;;5094601;28;20038;-64
2022/06/14 00:18:46;;;;;;;8.77;2.17;;;14.10;99.90;;;;;;5094627;28;20043;-69
2022/06/14 00:21:13;;;;;;;10.32;2.38;;;13.90;99.90;;;;;;5093525;28;20032;-68
2022/06/14 00:23:40;;;;;;;7.10;2.17;;;14.00;99.90;;;;;;5095012;28;20384;-68
2022/06/14 00:26:09;;;;;;;5.97;1.83;;;14.40;99.90;;;;;;5094712;28;20069;-66
2022/06/14 00:28:35;;;;;;;7.32;2.08;;;14.40;99.90;;;;;;5094140;28;20032;-65
2022/06/14 00:31:05;;;;;;;5.18;2.08;;;14.60;99.90;;;;;;5094510;28;20028;-67
2022/06/14 00:33:31;;;;;;;6.93;1.85;;;14.80;99.90;;;;;;5094165;28;20016;-65
2022/06/14 00:36:01;;;;;;;8.30;2.00;;;14.50;99.90;;;;;;5094639;28;20032;-65
2022/06/14 00:38:27;;;;;;;5.75;2.00;;;14.10;99.90;;;;;;5093988;28;20456;-66
2022/06/14 00:40:56;;;;;;;4.47;1.50;;;13.60;99.90;;;;;;5094393;28;20077;-64
2022/06/14 00:43:22;;;;;;;8.50;2.13;;;13.50;99.90;;;;;;5093445;28;20016;-68
2022/06/14 00:45:52;;;;;;;7.90;1.92;;;13.50;99.90;;;;;;5094385;28;20028;-66
2022/06/14 00:48:28;;;;;;;7.10;2.42;;;13.80;99.90;;;;;;5082548;28;20028;-68
2022/06/14 00:51:13;;;;;;;5.13;2.03;;;13.20;99.90;;;;;;5090067;28;20025;-69
2022/06/14 00:54:13;;;;;;;9.88;1.98;;;13.50;99.90;;;;;;5086429;28;20035;-69
2022/06/14 00:56:52;;;;;;;5.93;2.13;;;13.70;99.90;;;;;;5072154;28;20031;-69
2022/06/14 00:59:34;;;;;;;8.20;2.00;;;13.70;99.90;;;;;;5093775;28;20080;-68
2022/06/14 01:02:20;;;;;;;11.00;2.38;;;13.60;99.90;;;;;;5094033;28;20024;-68
2022/06/14 01:04:47;;;;;;;9.25;2.08;;;13.60;99.90;;;;;;5084521;28;20031;-69
2022/06/14 01:07:23;;;;;;;6.95;2.78;;;13.60;99.90;;;;;;5093845;28;20483;-64
2022/06/14 01:09:57;;;;;;;7.47;2.15;;;13.80;99.90;;;;;;5093672;28;20111;-67
2022/06/14 01:12:27;;;;;;;7.45;2.15;;;13.60;99.90;;;;;;5093421;28;20044;-68
2022/06/14 01:15:12;;;;;;;8.68;2.50;;;13.40;99.90;;;;;;5093477;28;20027;-65
2022/06/14 01:17:43;;;;;;;7.75;2.22;;;13.40;99.90;;;;;;5093466;28;20046;-69
2022/06/14 01:20:16;;;;;;;5.13;1.98;;;13.70;99.90;;;;;;5082452;28;20045;-63
2022/06/14 01:22:43;;;;;;;6.03;2.17;;;13.80;99.90;;;;;;5069498;28;20040;-69
2022/06/14 01:25:09;;;;;;;5.60;2.35;;;13.60;99.90;;;;;;5076338;28;20028;-68
2022/06/14 01:27:39;;;;;;;10.55;2.53;;;13.70;99.90;;;;;;5088254;28;20031;-66
2022/06/14 01:30:15;;;;;;;4.90;2.40;;;13.80;99.90;;;;;;5079373;28;20094;-67
2022/06/14 01:33:05;;;;;;;8.32;2.75;;;13.60;99.90;;;;;;5093146;28;20093;-63
2022/06/14 01:35:35;;;;;;;4.80;2.28;;;13.60;99.90;;;;;;5091853;28;20531;-63
2022/06/14 01:38:05;;;;;;;7.97;2.50;;;13.30;99.90;;;;;;5082531;28;20028;-65
2022/06/14 01:40:43;;;;;;;16.65;3.20;;;12.80;99.90;;;;;;5090385;28;20108;-64
2022/06/14 01:43:36;;;;;;;9.60;2.65;;;12.70;99.90;;;;;;5093406;28;20034;-65
2022/06/14 01:46:23;;;;;;;5.95;3.00;;;13.00;99.90;;;;;;5064961;28;20473;-67
2022/06/14 01:52:18;;;;;;;8.60;3.55;;;12.90;99.90;;;;;;5093183;28;20115;-66
2022/06/14 01:54:56;;;;;;;6.75;3.25;;;13.20;99.90;;;;;;5084710;28;20051;-64
2022/06/14 01:57:44;;;;;;;14.88;3.22;;;13.30;99.90;;;;;;5088375;28;20358;-64
2022/06/14 02:00:10;;;;;;;7.75;3.25;;;13.30;99.90;;;;;;5093057;28;20032;-65
2022/06/14 02:02:41;;;;;;;10.05;3.13;;;12.80;99.90;;;;;;5092942;28;20524;-63
2022/06/14 02:05:30;;;;;;;5.35;2.33;;;12.80;99.90;;;;;;5084070;28;20024;-63
2022/06/14 02:08:06;;;;;;;12.40;2.90;;;12.70;99.90;;;;;;5087227;28;20028;-65
2022/06/14 02:10:58;;;;;;;7.00;2.80;;;12.70;99.90;;;;;;5074652;28;20043;-70
2022/06/14 02:13:35;;;;;;;12.50;2.92;;;12.60;99.90;;;;;;5067674;28;20443;-63
2022/06/14 02:16:07;;;;;;;9.25;2.70;;;12.80;99.90;;;;;;5092565;28;20024;-68
2022/06/14 02:18:48;;;;;;;10.10;3.00;;;12.50;99.90;;;;;;5091713;28;20032;-65
2022/06/14 02:21:23;;;;;;;6.65;2.83;;;12.40;99.90;;;;;;5092967;28;20028;-66
2022/06/14 02:23:58;;;;;;;9.70;2.95;;;12.40;99.90;;;;;;5092586;28;20028;-64
2022/06/14 02:26:33;;;;;;;8.05;2.60;;;12.60;99.90;;;;;;5092664;28;20400;-63
2022/06/14 02:29:09;;;;;;;8.70;3.53;;;13.00;99.90;;;;;;5083897;28;20071;-68
2022/06/14 02:31:52;;;;;;;7.72;2.83;;;13.00;99.90;;;;;;5088820;28;20036;-64
2022/06/14 02:34:28;;;;;;;5.45;2.55;;;12.90;99.90;;;;;;5092787;28;20042;-67
2022/06/14 02:37:05;;;;;;;6.00;3.17;;;13.20;99.90;;;;;;5092356;28;20030;-66
2022/06/14 02:39:51;;;;;;;6.55;2.50;;;12.90;99.90;;;;;;5092320;28;20032;-70
2022/06/14 02:42:32;;;;;;;6.80;2.47;;;12.30;99.90;;;;;;5092857;28;20025;-66
2022/06/14 02:45:08;;;;;;;10.77;2.83;;;12.30;99.90;;;;;;5094107;28;20423;-65
2022/06/14 02:47:46;;;;;;;8.43;2.45;;;12.60;99.90;;;;;;5089984;28;20024;-63
2022/06/14 02:50:21;;;;;;;11.10;3.00;;;12.20;99.90;;;;;;5096262;28;20036;-70
2022/06/14 02:53:09;;;;;;;11.85;3.40;;;12.30;99.90;;;;;;5096075;28;20059;-63
2022/06/14 02:55:43;;;;;;;6.43;3.08;;;12.30;99.90;;;;;;5096346;28;20028;-64
2022/06/14 02:58:49;;;;;;;8.38;3.28;;;12.40;99.90;;;;;;5096482;28;20024;-67
2022/06/14 03:01:32;;;;;;;6.97;3.03;;;12.20;99.90;;;;;;5084628;28;20181;-63
2022/06/14 03:04:05;;;;;;;10.52;3.63;;;12.20;99.90;;;;;;5090235;28;20115;-63
2022/06/14 03:06:45;;;;;;;9.63;3.55;;;12.40;99.90;;;;;;5095793;28;20047;-64
2022/06/14 03:09:16;;;;;;;9.07;3.00;;;12.40;99.90;;;;;;5096151;28;20095;-65
2022/06/14 03:11:54;;;;;;;5.15;2.85;;;12.10;99.90;;;;;;5095995;28;20512;-63
2022/06/14 03:14:49;;;;;;;11.68;3.45;;;12.20;99.90;;;;;;5096018;28;20365;-63
2022/06/14 03:17:44;;;;;;;10.13;3.30;;;12.60;99.90;;;;;;5095856;28;20089;-69
2022/06/14 03:20:12;;;;;;;5.85;3.47;;;12.60;99.90;;;;;;5076029;28;20028;-64
2022/06/14 03:22:56;;;;;;;10.93;3.60;;;12.30;99.90;;;;;;5095734;28;20066;-65
2022/06/14 03:25:40;;;;;;;7.63;2.90;;;12.10;99.90;;;;;;5095802;28;20561;-65
2022/06/14 03:28:12;;;;;;;11.63;3.47;;;12.30;99.90;;;;;;5094074;28;20114;-63
2022/06/14 03:30:46;;;;;;;8.77;3.35;;;12.30;99.90;;;;;;5083837;28;20469;-63
2022/06/14 03:33:37;;;;;;;13.57;3.63;;;12.20;99.90;;;;;;5095776;28;20058;-63
2022/06/14 03:36:05;;;;;;;6.47;2.90;;;12.00;99.90;;;;;;5073775;28;20040;-65
2022/06/14 03:38:41;;;;;;;6.57;3.13;;;12.20;99.90;;;;;;5095537;28;20024;-69
2022/06/14 03:41:11;;;;;;;6.22;3.47;;;12.40;99.90;;;;;;5095529;28;20016;-63
2022/06/14 03:43:38;;;;;;;9.13;3.70;;;12.50;99.90;;;;;;5084331;28;20036;-63
2022/06/14 03:46:12;;;;;;;6.25;3.40;;;12.50;99.90;;;;;;5093763;28;20027;-65
2022/06/14 03:48:43;;;;;;;7.97;3.50;;;12.40;99.90;;;;;;5091723;28;20054;-65
2022/06/14 03:51:46;;;;;;;10.32;3.60;;;12.60;99.90;;;;;;5095113;28;20088;-64
2022/06/14 03:54:41;;;;;;;6.53;3.15;;;12.40;99.90;;;;;;5068046;28;20028;-65
2022/06/14 03:57:15;;;;;;;11.15;3.45;;;12.10;99.90;;;;;;5095123;28;20044;-66
2022/06/14 03:59:47;;;;;;;7.50;3.28;;;11.90;99.90;;;;;;5095523;28;20052;-65
2022/06/14 04:02:52;;;;;;;13.68;4.32;;;12.00;99.90;;;;;;5095281;28;20534;-63
2022/06/14 04:05:35;;;;;;;6.18;3.58;;;12.20;99.90;;;;;;5088827;28;20031;-64
2022/06/14 04:08:25;;;;;;;6.55;3.40;;;12.10;99.90;;;;;;5094446;28;20032;-63
2022/06/14 04:11:09;;;;;;;5.63;3.63;;;12.20;99.90;;;;;;5095312;28;20354;-66
2022/06/14 04:13:47;;;;;;;9.15;3.80;;;12.40;99.90;;;;;;5094802;28;20036;-65
2022/06/14 04:16:28;;;;;;;7.50;3.60;;;12.30;99.90;;;;;;5096534;28;20036;-65
2022/06/14 04:19:23;;;;;;;14.38;4.03;;;12.30;99.90;;;;;;5094751;28;20039;-63
2022/06/14 04:22:21;;;;;;;9.88;3.90;;;12.30;99.90;;;;;;5074242;28;20035;-64
2022/06/14 04:24:58;;;;;;;7.05;3.33;;;12.20;99.90;;;;;;5094804;28;20077;-70
2022/06/14 04:27:52;;;;;;;13.52;3.85;;;12.30;99.90;;;;;;5094736;28;20082;-70
2022/06/14 04:30:30;;;;;;;10.88;3.80;;;12.50;99.90;;;;;;5081204;28;20043;-64
2022/06/14 04:33:06;;;;;;;11.05;4.88;;;12.80;99.90;;;;;;5094544;28;20131;-67
2022/06/14 04:35:45;;;;;;;10.52;3.92;;;13.00;99.90;;;;;;5094336;28;20464;-65
2022/06/14 04:38:19;;;;;;;8.13;3.92;;;13.30;99.90;;;;;;5094051;28;20032;-69
2022/06/14 04:40:56;;;;;;;9.07;3.88;;;13.40;99.90;;;;;;5094541;28;20024;-64
2022/06/14 04:43:36;;;;;;;7.90;3.53;;;13.30;99.90;;;;;;5092835;28;20039;-65
2022/06/14 04:46:19;;;;;;;9.70;4.18;;;13.30;99.90;;;;;;5093013;28;20039;-63
2022/06/14 04:48:49;;;;;;;11.13;4.30;;;13.40;99.90;;;;;;5091400;28;20028;-70
2022/06/14 04:51:23;;;;;;;10.23;4.35;;;13.50;99.90;;;;;;5094012;28;20025;-69
2022/06/14 04:53:55;;;;;;;13.90;4.00;;;13.80;99.90;;;;;;5094144;28;20364;-63
2022/06/14 04:56:26;;;;;;;9.13;3.47;;;13.70;99.90;;;;;;5094242;28;20106;-64
2022/06/14 04:59:12;;;;;;;13.57;3.85;;;13.80;99.90;;;;;;5093778;28;20040;-65
2022/06/14 05:01:47;;;;;;;14.15;3.20;;;14.00;99.90;;;;;;5094114;28;20542;-63
2022/06/14 05:04:24;;;;;;;10.70;3.40;;;14.00;99.90;;;;;;5087556;28;20026;-64
2022/06/14 05:07:15;;;;;;;8.65;3.20;;;14.00;99.90;;;;;;5093441;28;20098;-65
2022/06/14 05:10:08;;;;;;;6.60;2.80;;;14.20;99.90;;;;;;5069221;28;20032;-64
2022/06/14 05:12:55;;;;;;;6.95;2.88;;;14.20;99.90;;;;;;5085660;28;20043;-67
2022/06/14 05:15:43;;;;;;;8.70;3.35;;;14.10;99.90;;;;;;5093752;28;20036;-70
2022/06/14 05:18:37;;;;;;;12.80;3.65;;;14.00;99.90;;;;;;5068143;28;20020;-63
2022/06/14 05:21:22;;;;;;;11.43;3.75;;;14.30;99.90;;;;;;5088011;28;20043;-63
2022/06/14 05:23:51;;;;;;;9.82;3.35;;;14.20;99.90;;;;;;5093674;28;20373;-68
2022/06/14 05:26:30;;;;;;;14.73;3.10;;;14.50;99.90;;;;;;5093321;28;20028;-65
2022/06/14 05:29:11;;;;;;;12.63;3.25;;;14.70;99.90;;;;;;5084884;28;20372;-67
2022/06/14 05:31:46;;;;;;;10.30;2.83;;;14.70;99.90;;;;;;5089444;28;20036;-65
2022/06/14 05:34:14;;;;;;;11.90;3.40;;;14.70;99.90;;;;;;5093264;28;20039;-64
2022/06/14 05:37:00;;;;;;;11.75;3.22;;;14.90;99.90;;;;;;5091246;28;20016;-63
2022/06/14 05:39:45;;;;;;;9.45;3.08;;;15.20;99.90;;;;;;5083904;28;20036;-67
2022/06/14 05:42:18;;;;;;;10.00;3.10;;;15.00;99.90;;;;;;5092134;28;20433;-65
2022/06/14 05:44:47;;;;;;;13.30;3.30;;;15.10;99.90;;;;;;5093263;28;20032;-67
2022/06/14 05:47:31;;;;;;;21.58;3.97;;;15.10;99.90;;;;;;5086344;28;20028;-70
2022/06/14 05:50:01;;;;;;;14.68;2.95;;;15.20;99.90;;;;;;5093166;28;20538;-65
2022/06/14 05:52:40;;;;;;;11.85;3.38;;;15.40;99.90;;;;;;5093029;28;20036;-65
2022/06/14 05:55:19;;;;;;;12.20;3.20;;;15.70;99.90;;;;;;5093062;28;20024;-63
2022/06/14 05:57:55;;;;;;;12.23;3.35;;;15.80;99.90;;;;;;5093162;28;20032;-69
2022/06/14 06:00:32;;;;;;;12.45;3.10;;;16.00;99.90;;;;;;5091730;28;20060;-63
2022/06/14 06:03:01;;;;;;;19.35;3.63;;;15.90;99.90;;;;;;5092821;28;20024;-69
2022/06/14 06:05:41;;;;;;;13.88;3.08;;;15.80;99.90;;;;;;5087947;28;20028;-65
2022/06/14 06:08:13;;;;;;;12.15;3.25;;;15.80;99.90;;;;;;5092815;28;20031;-69
2022/06/14 06:10:43;;;;;;;19.35;3.15;;;15.80;99.90;;;;;;5092622;28;20028;-64
2022/06/14 06:13:19;;;;;;;15.07;3.20;;;15.80;99.90;;;;;;5092917;28;20067;-63
2022/06/14 06:16:05;;;;;;;18.38;3.38;;;16.00;99.90;;;;;;5092912;28;20040;-64
2022/06/14 06:18:38;;;;;;;14.27;3.53;;;15.90;99.90;;;;;;5064691;28;20071;-68
2022/06/14 06:21:24;;;;;;;11.55;2.95;;;16.10;99.90;;;;;;5074278;28;20025;-65
2022/06/14 06:24:13;;;;;;;26.40;4.25;;;16.50;99.90;;;;;;5083800;28;20396;-66
2022/06/14 06:26:44;;;;;;;15.18;3.42;;;16.30;99.90;;;;;;5073561;28;20110;-63
2022/06/14 06:29:13;;;;;;;;;;;16.50;99.90;;;;;;5074859;28;20033;-65
2022/06/14 06:31:40;;;;;;;18.00;4.25;;;16.40;99.90;;;;;;5084987;28;19920;-63
2022/06/14 06:34:11;;;;;;;22.55;4.35;;;16.60;99.90;;;;;;5091822;28;20067;-62
2022/06/14 06:37:19;;;;;;;14.57;3.65;;;16.50;99.90;;;;;;5095497;28;20445;-69
2022/06/14 06:39:49;;;;;;;20.17;3.88;;;16.30;99.90;;;;;;5065126;28;20116;-68
2022/06/14 06:42:33;;;;;;;14.60;4.40;;;16.40;99.90;;;;;;5074609;28;20040;-65
2022/06/14 06:45:17;;;;;;;12.13;3.83;;;16.20;99.90;;;;;;5086983;28;20146;-68
2022/06/14 06:48:00;;;;;;;10.65;3.63;;;16.10;99.90;;;;;;5080439;28;20039;-68
2022/06/14 06:50:45;;;;;;;10.98;3.05;;;16.10;99.90;;;;;;5081667;28;20019;-62
2022/06/14 06:53:15;;;;;;;17.92;3.50;;;16.20;99.90;;;;;;5075128;28;20047;-65
2022/06/14 06:56:04;;;;;;;16.85;3.50;;;16.40;99.90;;;;;;5090166;28;20082;-68
2022/06/14 06:58:43;;;;;;;12.23;3.58;;;16.30;99.90;;;;;;5093575;28;20176;-66
2022/06/14 07:01:19;;;;;;;12.07;2.80;;;16.50;99.90;;;;;;5062908;28;20063;-62
2022/06/14 07:03:51;;;;;;;15.65;2.67;;;16.40;99.90;;;;;;5075052;28;20021;-66
2022/06/14 07:06:26;;;;;;;9.48;2.50;;;16.40;99.90;;;;;;5074960;28;20056;-63
2022/06/14 07:09:10;;;;;;;9.02;1.90;;;16.50;99.90;;;;;;5074747;28;20541;-67
2022/06/14 07:11:44;;;;;;;9.15;2.15;;;16.70;99.90;;;;;;5074778;28;20083;-65
2022/06/14 07:14:21;;;;;;;5.70;1.63;;;16.80;99.10;;;;;;5074684;28;21972;-69
2022/06/14 07:17:43;;;;;;;6.18;1.70;;;16.80;97.60;;;;;;5074557;28;20104;-64
2022/06/14 07:20:33;;;;;;;8.70;2.15;;;17.00;97.70;;;;;;5050627;28;20037;-69
2022/06/14 07:23:15;;;;;;;17.70;2.90;;;17.10;99.10;;;;;;5074180;28;20024;-63
2022/06/14 07:25:47;;;;;;;;;;;17.20;99.90;;;;;;5074827;28;20085;-63
2022/06/14 07:28:20;;;;;;;;;;;17.30;99.50;;;;;;5072396;28;19909;-69
2022/06/14 07:30:54;;;;;;;11.15;2.35;;;17.10;99.90;;;;;;5083123;28;19960;-68
2022/06/14 07:33:23;;;;;;;6.90;3.03;;;17.40;99.70;;;;;;5090902;28;20045;-69
2022/06/14 07:35:56;;;;;;;12.95;2.72;;;17.50;98.80;;;;;;5066891;28;20029;-64
2022/06/14 07:38:25;;;;;;;5.03;2.00;;;17.70;98.80;;;;;;5074407;28;20035;-70
2022/06/14 07:41:03;;;;;;;13.77;2.70;;;17.50;97.80;;;;;;5074787;28;20623;-65
2022/06/14 07:43:41;;;;;;;9.65;2.22;;;17.50;98.10;;;;;;5073280;28;20028;-67
2022/06/14 07:46:09;;;;;;;6.97;2.63;;;17.70;99.30;;;;;;5075272;28;20021;-66
2022/06/14 07:48:45;;;;;;;9.98;2.22;;;17.80;98.50;;;;;;5074585;28;20380;-65
2022/06/14 07:51:20;;;;;;;7.45;2.03;;;17.90;97.80;;;;;;5074973;28;20465;-67
2022/06/14 07:53:52;;;;;;;7.70;2.45;;;18.10;97.60;;;;;;5074846;28;20064;-67
2022/06/14 07:56:22;;;;;;;8.77;2.00;;;17.80;98.30;;;;;;5074990;28;20036;-67
2022/06/14 07:58:51;;;;;;;4.82;1.52;;;17.60;97.20;;;;;;5074558;28;20507;-65
2022/06/14 08:01:43;;;;;;;3.58;1.90;;;17.70;97.50;;;;;;5074860;28;20065;-65
2022/06/14 08:04:24;;;;;;;11.30;1.60;;;17.90;96.30;;;;;;5065488;28;20037;-66
2022/06/14 08:07:15;;;;;;;8.55;2.10;;;18.00;96.10;;;;;;5074910;28;20473;-66
2022/06/14 08:10:00;;;;;;;6.57;2.28;;;18.10;96.80;;;;;;5074801;28;20063;-67
2022/06/14 08:12:38;;;;;;;5.70;1.67;;;18.50;96.60;;;;;;5073946;28;20044;-66
2022/06/14 08:15:08;;;;;;;6.70;2.03;;;18.90;96.40;;;;;;5074445;28;20039;-66
2022/06/14 08:17:37;;;;;;;8.27;1.60;;;18.80;94.70;;;;;;5074821;28;20040;-65
2022/06/14 08:20:14;;;;;;;5.13;1.70;;;18.80;94.60;;;;;;5074577;28;20031;-67
2022/06/14 08:22:46;;;;;;;5.82;2.15;;;18.80;94.10;;;;;;5071289;28;20030;-67
2022/06/14 08:25:23;;;;;;;6.70;1.40;;;18.20;94.70;;;;;;5074589;28;20055;-67
2022/06/14 08:28:04;;;;;;;7.57;1.50;;;18.10;95.40;;;;;;5071027;28;20040;-67
2022/06/14 08:30:41;;;;;;;11.02;2.70;;;18.00;95.00;;;;;;5068861;28;20027;-65
2022/06/14 08:33:48;;;;;;;6.53;2.10;;;18.10;96.40;;;;;;5094420;28;20135;-65
2022/06/14 08:36:22;;;;;;;8.05;1.98;;;18.50;96.20;;;;;;5052205;28;20061;-65
2022/06/14 08:38:54;;;;;;;5.88;1.90;;;18.90;96.30;;;;;;5052113;28;20434;-67
2022/06/14 08:41:49;;;;;;;5.10;1.67;;;19.10;95.60;;;;;;5071414;28;20040;-65
2022/06/14 08:44:21;;;;;;;8.95;2.33;;;18.70;94.50;;;;;;5067957;28;20075;-68
2022/06/14 08:47:17;;;;;;;5.97;2.03;;;18.80;94.90;;;;;;5087691;28;20020;-66
2022/06/14 08:50:14;;;;;;;9.25;2.10;;;18.50;94.90;;;;;;5094109;28;20039;-67
2022/06/14 08:53:06;;;;;;;9.85;2.13;;;18.70;95.50;;;;;;5079470;28;20058;-66
2022/06/14 08:55:59;;;;;;;9.63;2.00;;;19.10;96.20;;;;;;5087900;28;20028;-67
2022/06/14 08:58:46;;;;;;;5.82;1.90;;;19.40;95.70;;;;;;5094042;28;20117;-67
2022/06/14 09:01:37;;;;;;;5.47;1.67;;;19.70;95.60;;;;;;5070098;28;20032;-65
2022/06/14 09:04:22;;;;;;;11.67;2.13;;;20.00;95.10;;;;;;5087940;28;20450;-67
2022/06/14 09:07:28;;;;;;;5.35;1.67;;;20.20;94.00;;;;;;5093840;28;20060;-65
2022/06/14 09:10:16;;;;;;;7.57;1.65;;;20.40;94.70;;;;;;5072438;28;20392;-67
2022/06/14 09:12:41;;;;;;;5.03;1.80;;;20.50;93.60;;;;;;5093920;28;20051;-67
2022/06/14 09:15:32;;;;;;;7.25;2.00;;;20.50;93.70;;;;;;5094019;28;20032;-66
2022/06/14 09:18:22;;;;;;;9.45;1.70;;;20.60;93.90;;;;;;5065330;28;20483;-65
2022/06/14 09:21:36;;;;;;;6.90;2.40;;;20.90;94.40;;;;;;5093424;28;20030;-67
2022/06/14 09:24:05;;;;;;;10.52;2.17;;;20.90;93.40;;;;;;5083893;28;20064;-67
2022/06/14 09:27:08;;;;;;;12.35;2.28;;;20.80;93.30;;;;;;5065985;28;20064;-67
2022/06/14 09:29:43;;;;;;;8.48;1.60;;;20.70;92.80;;;;;;5068700;28;20546;-67
2022/06/14 09:32:33;;;;;;;4.70;1.60;;;20.60;94.30;;;;;;5067067;28;20040;-66
2022/06/14 09:35:22;;;;;;;7.15;2.08;;;20.50;93.60;;;;;;5093046;28;21228;-65
2022/06/14 09:38:36;;;;;;;8.93;2.58;;;20.40;94.00;;;;;;5093191;28;20484;-66
2022/06/14 09:41:17;;;;;;;8.85;2.40;;;21.00;93.40;;;;;;5021328;28;20152;-65
2022/06/14 09:44:28;;;;;;;7.47;2.33;;;20.90;92.40;;;;;;5030693;28;20061;-67
2022/06/14 09:47:23;;;;;;;10.45;2.13;;;20.70;91.80;;;;;;5077505;28;20040;-65
2022/06/14 09:50:01;;;;;;;6.25;1.85;;;21.20;93.60;;;;;;5092848;28;20031;-67
2022/06/14 09:52:42;;;;;;;9.93;1.77;;;21.30;92.60;;;;;;5064731;28;20483;-67
2022/06/14 09:55:23;;;;;;;6.30;2.17;;;21.70;92.80;;;;;;5093087;28;20031;-67
2022/06/14 09:58:16;;;;;;;7.27;2.00;;;21.80;92.80;;;;;;5068952;28;20091;-65
2022/06/14 10:01:09;;;;;;;7.07;1.98;;;21.80;92.70;;;;;;5092722;28;20027;-67
2022/06/14 10:04:03;;;;;;;12.00;2.25;;;21.90;92.30;;;;;;5088065;28;20020;-67
2022/06/14 10:06:35;;;;;;;6.63;1.60;;;21.50;91.20;;;;;;5071923;28;20024;-67
2022/06/14 10:09:14;;;;;;;7.22;2.00;;;21.20;92.50;;;;;;5092447;28;20032;-66
2022/06/14 10:11:59;;;;;;;4.68;1.67;;;21.50;92.60;;;;;;5092791;28;20036;-67
2022/06/14 10:15:06;;;;;;;8.70;2.80;;;21.50;93.30;;;;;;5092494;28;20442;-66
2022/06/14 10:17:37;;;;;;;11.10;2.20;;;21.80;92.70;;;;;;5050198;28;20465;-67
2022/06/14 10:20:21;;;;;;;12.02;2.35;;;22.40;92.20;;;;;;5085558;28;20044;-68
2022/06/14 10:23:11;;;;;;;4.68;1.98;;;22.30;91.90;;;;;;5085110;28;20107;-67
2022/06/14 10:29:24;;;;;;;9.48;2.08;;;22.60;90.70;;;;;;5067814;28;20532;-69
2022/06/14 10:32:09;;;;;;;4.10;1.60;;;22.20;91.40;;;;;;5067397;28;20051;-65
2022/06/14 10:34:44;;;;;;;6.57;2.13;;;22.30;92.40;;;;;;5072047;28;20028;-65
2022/06/14 10:37:37;;;;;;;4.05;1.55;;;22.00;91.20;;;;;;5067541;28;20024;-65
2022/06/14 10:40:09;;;;;;;4.57;1.80;;;22.60;91.70;;;;;;5088907;28;20028;-70
2022/06/14 10:42:39;;;;;;;;;;;22.70;91.90;;;;;;5075755;28;20029;-69
2022/06/14 10:45:12;;;;;;;11.02;1.75;;;22.60;90.70;;;;;;5077789;28;19916;-70
2022/06/14 10:48:07;;;;;;;12.60;2.38;;;22.80;91.20;;;;;;5079423;28;20032;-70
2022/06/14 10:50:40;;;;;;;5.90;2.35;;;22.90;91.60;;;;;;5085944;28;20081;-65
2022/06/14 10:53:24;;;;;;;8.77;1.88;;;23.20;91.10;;;;;;5074028;28;20400;-67
2022/06/14 10:56:07;;;;;;;7.55;2.05;;;23.00;90.50;;;;;;5080971;28;20392;-70
2022/06/14 10:58:36;;;;;;;6.35;2.22;;;23.20;91.00;;;;;;5070437;28;20542;-66
2022/06/14 11:01:25;;;;;;;4.57;1.75;;;23.60;90.60;;;;;;5088967;28;20012;-65
2022/06/14 11:04:05;;;;;;;6.95;2.40;;;24.10;90.80;;;;;;5085507;28;20024;-66
2022/06/14 11:06:50;;;;;;;7.10;2.03;;;23.90;88.90;;;;;;5068048;28;20478;-70
2022/06/14 11:09:35;;;;;;;8.88;2.30;;;23.40;89.50;;;;;;5086347;28;20032;-65
2022/06/14 11:12:28;;;;;;;9.50;2.83;;;23.80;91.00;;;;;;5089830;28;20046;-66
2022/06/14 11:15:22;;;;;;;6.65;2.00;;;23.50;87.30;;;;;;5064178;28;20639;-70
2022/06/14 11:18:09;;;;;;;10.45;2.13;;;23.50;90.50;;;;;;5082543;28;20051;-67
2022/06/14 11:20:59;;;;;;;11.40;2.72;;;23.60;90.40;;;;;;5066585;28;20432;-65
2022/06/14 11:23:35;;;;;;;7.78;1.92;;;23.60;90.20;;;;;;5067367;28;20048;-69
2022/06/14 11:26:19;;;;;;;4.88;1.83;;;23.50;89.50;;;;;;5083402;28;20036;-69
2022/06/14 11:28:50;;;;;;;6.10;2.30;;;23.30;90.10;;;;;;5074586;28;20036;-68
2022/06/14 11:31:45;;;;;;;6.68;2.28;;;23.60;89.90;;;;;;5076016;28;20441;-69
2022/06/14 11:34:27;;;;;;;9.90;2.45;;;24.20;86.40;;;;;;5069046;28;20044;-67
2022/06/14 11:37:14;;;;;;;5.45;1.63;;;24.60;85.60;;;;;;5088455;28;20376;-69
2022/06/14 11:40:12;;;;;;;9.02;2.30;;;24.80;83.70;;;;;;5093055;28;20032;-66
2022/06/14 11:42:46;;;;;;;9.55;2.10;;;24.30;84.70;;;;;;5066294;28;20052;-69
2022/06/14 11:46:01;;;;;;;5.13;2.22;;;24.40;88.00;;;;;;5082419;28;20067;-70
2022/06/14 11:48:59;;;;;;;13.02;2.10;;;24.70;86.50;;;;;;5043681;28;20555;-65
2022/06/14 11:51:53;;;;;;;8.95;2.00;;;24.70;86.50;;;;;;5093818;28;20033;-66
2022/06/14 11:54:43;;;;;;;9.02;2.38;;;24.40;86.40;;;;;;5078140;28;20489;-67
2022/06/14 11:57:47;;;;;;;5.10;1.73;;;24.80;86.00;;;;;;5083046;28;20028;-65
2022/06/14 12:00:24;;;;;;;7.80;2.47;;;24.50;87.10;;;;;;5049434;28;20041;-70
2022/06/14 12:02:59;;;;;;;8.07;2.03;;;25.10;85.80;;;;;;5067339;28;20464;-67
2022/06/14 12:06:02;;;;;;;9.43;2.63;;;25.00;87.50;;;;;;5077178;28;20036;-69
2022/06/14 12:09:07;;;;;;;5.10;1.83;;;25.70;84.60;;;;;;5045645;28;20503;-65
2022/06/14 12:11:45;;;;;;;8.48;2.10;;;25.30;85.30;;;;;;5076801;28;20510;-65
2022/06/14 12:14:23;;;;;;;6.32;2.17;;;25.30;85.80;;;;;;5091622;28;20059;-66
2022/06/14 12:17:07;;;;;;;9.50;2.42;;;25.20;83.30;;;;;;5093194;28;20424;-66
2022/06/14 12:19:34;;;;;;;6.88;2.22;;;24.80;82.80;;;;;;5094399;28;20035;-69
2022/06/14 12:22:26;;;;;;;7.10;2.10;;;24.90;87.70;;;;;;5094542;28;20451;-67
2022/06/14 12:27:43;;;;;;;11.00;3.15;;;25.90;83.00;;;;;;5094461;28;19908;-67
2022/06/14 12:30:14;;;;;;;8.60;2.08;;;25.80;81.60;;;;;;5080142;28;20541;-69
2022/06/14 12:32:53;;;;;;;6.50;1.92;;;25.20;83.40;;;;;;5094140;28;20387;-69
2022/06/14 12:35:26;;;;;;;6.85;2.08;;;25.80;84.60;;;;;;5093975;28;20042;-68
2022/06/14 12:37:52;;;;;;;8.15;2.13;;;26.40;81.10;;;;;;5094328;28;20039;-69
2022/06/14 12:40:27;;;;;;;11.35;2.13;;;26.20;83.20;;;;;;5094165;28;20492;-66
2022/06/14 12:43:08;;;;;;;8.63;2.17;;;26.20;80.00;;;;;;5093973;28;20032;-66
2022/06/14 12:45:53;;;;;;;9.63;2.42;;;26.10;81.00;;;;;;5094277;28;20051;-65
2022/06/14 12:48:24;;;;;;;10.45;2.45;;;27.20;82.70;;;;;;5079705;28;20077;-67
2022/06/14 12:50:58;;;;;;;8.75;2.47;;;27.20;83.00;;;;;;5067297;28;20032;-69
2022/06/14 12:53:38;;;;;;;8.02;1.92;;;27.00;81.00;;;;;;5092940;28;20036;-66
2022/06/14 12:56:30;;;;;;;6.20;2.40;;;26.80;81.50;;;;;;5093920;28;20036;-65
2022/06/14 12:59:20;;;;;;;4.72;1.83;;;26.70;79.40;;;;;;5093848;28;20599;-66
2022/06/14 13:02:20;;;;;;;8.90;2.30;;;26.70;81.30;;;;;;5092448;28;20097;-65
2022/06/14 13:04:53;;;;;;;6.30;2.05;;;27.30;79.90;;;;;;5078023;28;20068;-69
2022/06/14 13:07:49;;;;;;;8.45;1.95;;;27.30;81.00;;;;;;5093774;28;20017;-67
2022/06/14 13:10:41;;;;;;;9.68;2.45;;;27.00;80.50;;;;;;5094007;28;20111;-69
2022/06/14 13:13:40;;;;;;;9.88;2.25;;;27.30;80.20;;;;;;5069471;28;20047;-67
2022/06/14 13:16:12;;;;;;;6.63;2.00;;;27.50;78.00;;;;;;5093219;28;20028;-69
2022/06/14 13:18:44;;;;;;;13.00;2.28;;;27.50;79.40;;;;;;5093771;28;20048;-66
2022/06/14 13:21:49;;;;;;;12.18;2.83;;;28.00;77.50;;;;;;5065381;28;20025;-68
2022/06/14 13:24:29;;;;;;;6.90;2.55;;;27.90;78.70;;;;;;5070726;28;20111;-68
2022/06/14 13:27:19;;;;;;;7.13;2.40;;;27.60;77.10;;;;;;5067770;28;20110;-68
2022/06/14 13:30:05;;;;;;;9.18;2.03;;;27.20;78.60;;;;;;5082260;28;20028;-65
2022/06/14 13:32:38;;;;;;;6.32;2.55;;;27.50;79.10;;;;;;5082475;28;20047;-67
2022/06/14 13:35:34;;;;;;;9.57;2.25;;;27.80;77.70;;;;;;5072403;28;20128;-68
2022/06/14 13:38:18;;;;;;;11.05;2.40;;;28.10;78.80;;;;;;5066495;28;20032;-69
2022/06/14 13:40:53;;;;;;;11.02;2.17;;;28.60;77.60;;;;;;5065963;28;20366;-66
2022/06/14 13:43:50;;;;;;;9.38;2.63;;;28.70;78.50;;;;;;5066877;28;20050;-68
2022/06/14 13:46:27;;;;;;;8.23;2.40;;;28.40;77.10;;;;;;5068221;28;20047;-70
2022/06/14 13:49:15;;;;;;;9.77;2.17;;;29.20;76.20;;;;;;5070639;28;20150;-68
2022/06/14 13:51:48;;;;;;;9.63;2.15;;;29.10;76.90;;;;;;5071639;28;20516;-69
2022/06/14 13:54:32;;;;;;;9.32;2.47;;;29.10;77.10;;;;;;5072007;28;20032;-70
2022/06/14 13:57:19;;;;;;;5.95;1.98;;;28.30;75.30;;;;;;5067105;28;20112;-69
2022/06/14 13:59:49;;;;;;;7.90;2.35;;;29.10;77.80;;;;;;5063982;28;20025;-70
2022/06/14 14:02:29;;;;;;;6.22;1.77;;;28.20;75.60;;;;;;5071917;28;20089;-66
2022/06/14 14:05:16;;;;;;;13.05;2.72;;;28.30;77.20;;;;;;5068359;28;20025;-67